createdAt,value
2022-10-28T00:00:14.011Z,19.35
2022-10-28T00:01:14.054Z,19.34
2022-10-28T00:02:14.002Z,19.38
2022-10-28T00:03:13.897Z,19.42
2022-10-28T00:04:13.864Z,19.34
2022-10-28T00:05:13.829Z,19.42
2022-10-28T00:06:13.788Z,19.38
2022-10-28T00:07:13.748Z,19.39
2022-10-28T00:08:13.725Z,19.40
2022-10-28T00:09:13.675Z,19.43
2022-10-28T00:10:13.637Z,19.45
2022-10-28T00:11:13.601Z,19.46
2022-10-28T00:12:13.563Z,19.49
2022-10-28T00:13:13.528Z,19.46
2022-10-28T00:14:13.502Z,19.49
2022-10-28T00:15:13.450Z,19.47
2022-10-28T00:16:13.413Z,19.45
2022-10-28T00:17:13.454Z,19.60
2022-10-28T00:18:13.338Z,19.58
2022-10-28T00:19:13.301Z,19.61
2022-10-28T00:20:13.283Z,19.55
2022-10-28T00:21:13.225Z,19.55
2022-10-28T00:22:13.190Z,19.57
2022-10-28T00:23:13.152Z,19.52
2022-10-28T00:24:13.134Z,19.57
2022-10-28T00:25:13.109Z,19.50
2022-10-28T00:26:13.068Z,19.61
2022-10-28T00:27:13.001Z,19.53
2022-10-28T00:28:12.965Z,19.53
2022-10-28T00:29:12.931Z,19.52
2022-10-28T00:30:12.890Z,19.47
2022-10-28T00:31:12.867Z,19.50
2022-10-28T00:32:12.816Z,19.46
2022-10-28T00:33:12.777Z,19.55
2022-10-28T00:34:12.745Z,19.57
2022-10-28T00:35:12.705Z,19.43
2022-10-28T00:36:12.669Z,19.57
2022-10-28T00:37:12.638Z,19.58
2022-10-28T00:38:12.594Z,19.61
2022-10-28T00:39:12.563Z,19.70
2022-10-28T00:40:12.518Z,19.68
2022-10-28T00:41:12.480Z,19.68
2022-10-28T00:42:12.514Z,19.64
2022-10-28T00:43:12.408Z,19.57
2022-10-28T00:44:12.369Z,19.62
2022-10-28T00:45:12.343Z,19.67
2022-10-28T00:46:12.295Z,19.67
2022-10-28T00:47:12.255Z,19.71
2022-10-28T00:48:12.220Z,19.76
2022-10-28T00:49:12.183Z,19.72
2022-10-28T00:50:12.151Z,19.78
2022-10-28T00:51:12.125Z,19.78
2022-10-28T00:52:12.070Z,19.85
2022-10-28T00:53:12.032Z,19.82
2022-10-28T00:54:11.999Z,19.76
2022-10-28T00:55:11.958Z,19.80
2022-10-28T00:56:11.992Z,19.76
2022-10-28T00:57:11.887Z,19.72
2022-10-28T00:58:11.903Z,19.65
2022-10-28T00:59:11.812Z,19.75
2022-10-28T01:00:11.775Z,19.70
2022-10-28T01:01:11.775Z,19.72
2022-10-28T01:02:11.776Z,19.71
2022-10-28T01:03:11.662Z,19.71
2022-10-28T01:04:11.627Z,19.64
2022-10-28T01:05:11.593Z,19.68
2022-10-28T01:06:11.553Z,19.64
2022-10-28T01:07:11.515Z,19.57
2022-10-28T01:08:11.490Z,19.47
2022-10-28T01:09:11.444Z,19.57
2022-10-28T01:11:42.981Z,19.64
2022-10-28T01:12:42.941Z,19.57
2022-10-28T01:13:42.940Z,19.57
2022-10-28T01:14:42.867Z,19.53
2022-10-28T01:15:42.832Z,19.55
2022-10-28T01:16:42.794Z,19.46
2022-10-28T01:17:42.760Z,19.43
2022-10-28T01:18:42.720Z,19.46
2022-10-28T01:19:42.691Z,19.45
2022-10-28T01:20:44.240Z,19.40
2022-10-28T01:21:42.610Z,19.42
2022-10-28T01:22:42.599Z,19.34
2022-10-28T01:23:42.534Z,19.42
2022-10-28T01:24:42.510Z,19.45
2022-10-28T01:25:42.459Z,19.46
2022-10-28T01:26:42.427Z,19.49
2022-10-28T01:27:42.397Z,19.42
2022-10-28T01:28:42.350Z,19.47
2022-10-28T01:29:42.312Z,19.43
2022-10-28T01:30:42.278Z,19.46
2022-10-28T01:31:42.245Z,19.50
2022-10-28T01:32:42.217Z,19.42
2022-10-28T01:33:42.165Z,19.57
2022-10-28T01:34:42.129Z,19.61
2022-10-28T01:35:42.093Z,19.67
2022-10-28T01:36:42.055Z,19.65
2022-10-28T01:37:42.018Z,19.68
2022-10-28T01:38:41.992Z,19.60
2022-10-28T01:39:41.943Z,19.68
2022-10-28T01:40:41.904Z,19.70
2022-10-28T01:41:41.868Z,19.72
2022-10-28T01:42:41.832Z,19.70
2022-10-28T01:43:41.795Z,19.71
2022-10-28T01:44:41.769Z,19.76
2022-10-28T01:45:41.723Z,19.76
2022-10-28T01:46:41.685Z,19.75
2022-10-28T01:47:41.646Z,19.72
2022-10-28T01:48:41.612Z,19.71
2022-10-28T01:49:41.583Z,19.86
2022-10-28T01:50:41.540Z,19.79
2022-10-28T01:51:41.498Z,19.76
2022-10-28T01:52:41.471Z,19.76
2022-10-28T01:53:41.424Z,19.67
2022-10-28T01:54:41.388Z,19.83
2022-10-28T01:55:41.369Z,19.86
2022-10-28T01:56:41.317Z,19.86
2022-10-28T01:57:41.279Z,19.92
2022-10-28T01:58:41.249Z,19.90
2022-10-28T01:59:41.205Z,19.87
2022-10-28T02:00:41.251Z,19.85
2022-10-28T02:01:41.319Z,19.89
2022-10-28T02:02:41.091Z,19.94
2022-10-28T02:03:41.054Z,19.82
2022-10-28T02:04:41.018Z,19.82
2022-10-28T02:05:40.977Z,19.79
2022-10-28T02:06:40.943Z,19.78
2022-10-28T02:07:40.917Z,19.79
2022-10-28T02:08:40.869Z,19.78
2022-10-28T02:09:40.834Z,19.75
2022-10-28T02:10:40.794Z,19.75
2022-10-28T02:11:40.756Z,19.67
2022-10-28T02:12:40.734Z,19.64
2022-10-28T02:13:40.684Z,19.68
2022-10-28T02:14:40.656Z,19.68
2022-10-28T02:15:40.623Z,19.71
2022-10-28T02:16:40.572Z,19.67
2022-10-28T02:17:40.546Z,19.75
2022-10-28T02:18:40.497Z,19.61
2022-10-28T02:19:40.459Z,19.76
2022-10-28T02:20:40.428Z,19.64
2022-10-28T02:21:40.389Z,19.68
2022-10-28T02:22:40.362Z,19.60
2022-10-28T02:23:40.316Z,19.57
2022-10-28T02:24:40.277Z,19.67
2022-10-28T02:25:40.237Z,19.70
2022-10-28T02:26:40.202Z,19.61
2022-10-28T02:27:40.163Z,19.57
2022-10-28T02:28:40.136Z,19.64
2022-10-28T02:29:40.090Z,19.61
2022-10-28T02:30:40.053Z,19.62
2022-10-28T02:31:40.017Z,19.60
2022-10-28T02:32:39.976Z,19.49
2022-10-28T02:33:39.939Z,19.45
2022-10-28T02:34:39.915Z,19.45
2022-10-28T02:35:39.866Z,19.53
2022-10-28T02:36:39.829Z,19.57
2022-10-28T02:37:39.790Z,19.55
2022-10-28T02:38:39.759Z,19.42
2022-10-28T02:39:39.725Z,19.50
2022-10-28T02:40:39.817Z,19.42
2022-10-28T02:41:39.650Z,19.46
2022-10-28T02:42:39.605Z,19.38
2022-10-28T02:43:39.564Z,19.43
2022-10-28T02:44:39.543Z,19.47
2022-10-28T02:45:39.495Z,19.55
2022-10-28T02:46:39.456Z,19.52
2022-10-28T02:47:39.416Z,19.60
2022-10-28T02:48:39.390Z,19.43
2022-10-28T02:49:39.343Z,19.45
2022-10-28T02:50:39.320Z,19.34
2022-10-28T02:51:39.271Z,19.35
2022-10-28T02:52:39.233Z,19.39
2022-10-28T02:53:39.194Z,19.35
2022-10-28T02:54:39.159Z,19.43
2022-10-28T02:55:39.121Z,19.39
2022-10-28T02:56:39.100Z,19.39
2022-10-28T02:57:39.046Z,19.28
2022-10-28T02:58:39.012Z,19.34
2022-10-28T02:59:38.967Z,19.34
2022-10-28T03:00:38.934Z,19.30
2022-10-28T03:03:10.470Z,19.40
2022-10-28T03:04:10.422Z,19.31
2022-10-28T03:05:10.480Z,19.60
2022-10-28T03:06:10.347Z,19.47
2022-10-28T03:07:10.308Z,19.46
2022-10-28T03:08:10.268Z,19.39
2022-10-28T03:09:10.249Z,19.39
2022-10-28T03:10:10.195Z,19.43
2022-10-28T03:11:10.159Z,19.40
2022-10-28T03:12:10.123Z,19.31
2022-10-28T03:13:10.084Z,19.28
2022-10-28T03:14:11.993Z,19.42
2022-10-28T03:15:10.017Z,19.31
2022-10-28T03:16:09.970Z,19.34
2022-10-28T03:17:09.933Z,19.34
2022-10-28T03:18:09.896Z,19.25
2022-10-28T03:19:09.941Z,19.31
2022-10-28T03:20:09.821Z,19.31
2022-10-28T03:21:09.793Z,19.24
2022-10-28T03:22:09.745Z,19.30
2022-10-28T03:23:09.708Z,19.21
2022-10-28T03:24:09.670Z,19.20
2022-10-28T03:25:09.633Z,19.16
2022-10-28T03:26:09.599Z,19.20
2022-10-28T03:27:09.571Z,19.23
2022-10-28T03:28:09.522Z,19.32
2022-10-28T03:29:09.490Z,19.27
2022-10-28T03:30:09.448Z,19.21
2022-10-28T03:31:09.408Z,19.17
2022-10-28T03:32:09.473Z,19.17
2022-10-28T03:33:09.348Z,19.12
2022-10-28T03:34:09.297Z,19.16
2022-10-28T03:35:09.258Z,19.10
2022-10-28T03:36:09.231Z,19.20
2022-10-28T03:37:09.261Z,19.15
2022-10-28T03:38:09.161Z,19.13
2022-10-28T03:39:09.109Z,19.24
2022-10-28T03:40:09.073Z,19.21
2022-10-28T03:41:09.034Z,19.23
2022-10-28T03:42:08.997Z,19.23
2022-10-28T03:43:08.969Z,19.20
2022-10-28T03:44:08.920Z,19.13
2022-10-28T03:45:08.881Z,19.28
2022-10-28T03:46:08.846Z,19.25
2022-10-28T03:47:08.807Z,19.21
2022-10-28T03:48:08.770Z,19.16
2022-10-28T03:49:08.748Z,19.16
2022-10-28T03:50:08.695Z,19.16
2022-10-28T03:51:08.662Z,19.17
2022-10-28T03:52:08.621Z,19.20
2022-10-28T03:53:08.581Z,19.32
2022-10-28T03:54:08.548Z,19.34
2022-10-28T03:55:08.519Z,19.31
2022-10-28T03:56:08.473Z,19.31
2022-10-28T03:57:08.432Z,19.25
2022-10-28T03:58:08.397Z,19.27
2022-10-28T03:59:08.357Z,19.34
2022-10-28T04:00:08.322Z,19.30
2022-10-28T04:01:08.531Z,19.27
2022-10-28T04:02:08.303Z,19.17
2022-10-28T04:03:08.206Z,19.21
2022-10-28T04:04:08.172Z,19.21
2022-10-28T04:05:08.133Z,19.28
2022-10-28T04:06:08.096Z,19.21
2022-10-28T04:07:08.068Z,19.21
2022-10-28T04:08:08.019Z,19.16
2022-10-28T04:09:07.995Z,19.25
2022-10-28T04:10:07.946Z,19.16
2022-10-28T04:11:07.905Z,19.23
2022-10-28T04:12:07.873Z,19.12
2022-10-28T04:13:07.833Z,19.12
2022-10-28T04:14:07.798Z,19.21
2022-10-28T04:15:07.771Z,19.30
2022-10-28T04:16:07.724Z,19.46
2022-10-28T04:17:07.683Z,19.43
2022-10-28T04:18:07.646Z,19.45
2022-10-28T04:19:07.606Z,19.34
2022-10-28T04:20:07.571Z,19.31
2022-10-28T04:21:07.541Z,19.23
2022-10-28T04:22:07.495Z,19.30
2022-10-28T04:23:07.456Z,19.28
2022-10-28T04:24:07.420Z,19.28
2022-10-28T04:25:07.497Z,19.25
2022-10-28T04:26:07.361Z,19.25
2022-10-28T04:27:07.306Z,19.32
2022-10-28T04:28:07.270Z,19.31
2022-10-28T04:29:07.233Z,19.40
2022-10-28T04:30:07.197Z,19.39
2022-10-28T04:31:07.159Z,19.34
2022-10-28T04:32:07.126Z,19.32
2022-10-28T04:33:07.083Z,19.32
2022-10-28T04:34:07.050Z,19.45
2022-10-28T04:35:07.008Z,19.50
2022-10-28T04:36:06.979Z,19.35
2022-10-28T04:37:06.930Z,19.40
2022-10-28T04:38:06.911Z,19.34
2022-10-28T04:39:06.856Z,19.25
2022-10-28T04:40:06.821Z,19.25
2022-10-28T04:41:06.787Z,19.31
2022-10-28T04:42:06.750Z,19.25
2022-10-28T04:43:08.616Z,19.30
2022-10-28T04:44:06.669Z,19.40
2022-10-28T04:45:06.630Z,19.32
2022-10-28T04:46:06.594Z,19.34
2022-10-28T04:47:06.554Z,19.23
2022-10-28T04:48:06.519Z,19.32
2022-10-28T04:49:06.493Z,19.31
2022-10-28T04:50:06.459Z,19.28
2022-10-28T04:51:06.405Z,19.27
2022-10-28T04:52:06.370Z,19.15
2022-10-28T04:53:06.330Z,19.20
2022-10-28T04:54:06.296Z,19.20
2022-10-28T04:55:06.253Z,19.17
2022-10-28T04:56:06.231Z,19.01
2022-10-28T04:57:06.183Z,19.06
2022-10-28T04:58:06.146Z,19.13
2022-10-28T04:59:06.106Z,19.09
2022-10-28T05:00:06.070Z,19.13
2022-10-28T05:01:06.058Z,19.09
2022-10-28T05:02:06.070Z,19.10
2022-10-28T05:03:05.960Z,19.09
2022-10-28T05:04:05.921Z,19.07
2022-10-28T05:05:05.937Z,19.02
2022-10-28T05:06:05.845Z,19.07
2022-10-28T05:07:05.819Z,19.05
2022-10-28T05:08:05.770Z,19.01
2022-10-28T05:09:05.731Z,19.01
2022-10-28T05:10:05.694Z,18.99
2022-10-28T05:11:05.659Z,19.07
2022-10-28T05:12:05.631Z,19.06
2022-10-28T05:13:05.596Z,19.06
2022-10-28T05:14:05.559Z,19.06
2022-10-28T05:15:05.507Z,18.90
2022-10-28T05:16:05.469Z,18.93
2022-10-28T05:17:05.429Z,18.90
2022-10-28T05:18:05.393Z,18.83
2022-10-28T05:19:05.387Z,19.02
2022-10-28T05:20:05.319Z,18.96
2022-10-28T05:21:05.281Z,18.99
2022-10-28T05:22:05.247Z,18.87
2022-10-28T05:23:05.202Z,18.91
2022-10-28T05:24:05.168Z,19.06
2022-10-28T05:25:05.139Z,19.01
2022-10-28T05:26:05.094Z,19.02
2022-10-28T05:27:05.054Z,19.10
2022-10-28T05:28:05.039Z,18.97
2022-10-28T05:29:04.980Z,19.16
2022-10-28T05:30:04.994Z,19.16
2022-10-28T05:31:04.904Z,19.15
2022-10-28T05:33:04.840Z,19.28
2022-10-28T05:34:04.805Z,19.21
2022-10-28T05:35:04.753Z,19.16
2022-10-28T05:36:04.718Z,19.20
2022-10-28T05:37:04.678Z,19.16
2022-10-28T05:38:04.643Z,19.16
2022-10-28T05:39:04.604Z,19.24
2022-10-28T05:40:04.580Z,19.20
2022-10-28T05:41:04.540Z,19.13
2022-10-28T05:42:04.494Z,19.13
2022-10-28T05:43:04.455Z,19.12
2022-10-28T05:44:04.417Z,19.05
2022-10-28T05:45:04.384Z,19.05
2022-10-28T05:46:04.358Z,19.15
2022-10-28T05:47:04.304Z,19.07
2022-10-28T05:48:04.269Z,19.15
2022-10-28T05:49:04.233Z,19.12
2022-10-28T05:50:04.193Z,19.16
2022-10-28T05:51:04.154Z,19.01
2022-10-28T05:52:04.131Z,19.12
2022-10-28T05:53:04.077Z,19.13
2022-10-28T05:54:04.045Z,19.09
2022-10-28T05:55:04.004Z,19.07
2022-10-28T05:56:03.975Z,19.01
2022-10-28T05:57:03.929Z,19.07
2022-10-28T05:58:03.904Z,19.09
2022-10-28T05:59:03.854Z,19.09
2022-10-28T06:00:03.828Z,19.05
2022-10-28T06:01:03.779Z,19.07
2022-10-28T06:02:03.761Z,19.07
2022-10-28T06:03:03.714Z,19.12
2022-10-28T06:04:03.735Z,19.06
2022-10-28T06:05:03.633Z,19.10
2022-10-28T06:06:03.593Z,19.01
2022-10-28T06:07:03.554Z,18.99
2022-10-28T06:08:03.518Z,19.05
2022-10-28T06:09:03.492Z,19.09
2022-10-28T06:10:03.443Z,19.07
2022-10-28T06:11:01.867Z,19.10
2022-10-28T06:12:01.832Z,19.23
2022-10-28T06:13:01.795Z,19.12
2022-10-28T06:14:01.760Z,19.06
2022-10-28T06:15:01.736Z,19.17
2022-10-28T06:16:01.688Z,19.23
2022-10-28T06:17:01.650Z,19.21
2022-10-28T06:18:01.612Z,19.16
2022-10-28T06:19:01.576Z,19.30
2022-10-28T06:20:01.537Z,19.28
2022-10-28T06:21:01.516Z,19.27
2022-10-28T06:22:01.468Z,19.28
2022-10-28T06:23:01.430Z,19.32
2022-10-28T06:24:01.394Z,19.27
2022-10-28T06:25:01.358Z,19.28
2022-10-28T06:26:01.332Z,19.28
2022-10-28T06:27:01.291Z,19.24
2022-10-28T06:28:01.245Z,19.28
2022-10-28T06:29:01.208Z,19.27
2022-10-28T06:30:01.175Z,19.28
2022-10-28T06:31:01.134Z,19.24
2022-10-28T06:32:01.101Z,19.27
2022-10-28T06:33:01.072Z,19.30
2022-10-28T06:34:01.026Z,19.28
2022-10-28T06:35:00.987Z,19.31
2022-10-28T06:36:00.970Z,19.34
2022-10-28T06:37:00.936Z,19.24
2022-10-28T06:38:01.166Z,19.42
2022-10-28T06:39:00.857Z,19.38
2022-10-28T06:40:00.814Z,19.32
2022-10-28T06:41:00.774Z,19.32
2022-10-28T06:42:00.737Z,19.35
2022-10-28T06:43:00.697Z,19.47
2022-10-28T06:44:00.665Z,19.32
2022-10-28T06:45:00.637Z,19.43
2022-10-28T06:46:00.593Z,19.35
2022-10-28T06:47:02.065Z,19.38
2022-10-28T06:48:02.030Z,19.34
2022-10-28T06:49:01.993Z,19.42
2022-10-28T06:50:01.956Z,19.47
2022-10-28T06:51:01.935Z,19.43
2022-10-28T06:52:01.884Z,19.46
2022-10-28T06:53:01.851Z,19.45
2022-10-28T06:54:01.809Z,19.49
2022-10-28T06:55:01.775Z,19.49
2022-10-28T06:56:01.740Z,19.45
2022-10-28T06:57:01.710Z,19.49
2022-10-28T06:58:01.670Z,19.49
2022-10-28T06:59:01.627Z,19.46
2022-10-28T07:00:01.599Z,19.40
2022-10-28T07:01:01.555Z,19.47
2022-10-28T07:02:01.688Z,19.47
2022-10-28T07:03:01.725Z,19.49
2022-10-28T07:04:01.446Z,19.50
2022-10-28T07:05:01.410Z,19.52
2022-10-28T07:06:01.413Z,19.62
2022-10-28T07:07:01.336Z,19.53
2022-10-28T07:08:01.297Z,19.68
2022-10-28T07:09:01.277Z,19.60
2022-10-28T07:10:01.227Z,19.53
2022-10-28T07:11:01.189Z,19.64
2022-10-28T07:12:04.802Z,19.65
2022-10-28T07:13:01.118Z,19.65
2022-10-28T07:14:01.188Z,19.71
2022-10-28T07:15:01.055Z,19.68
2022-10-28T07:16:01.008Z,19.65
2022-10-28T07:17:01.138Z,19.71
2022-10-28T07:18:00.936Z,19.76
2022-10-28T07:19:00.899Z,19.71
2022-10-28T07:20:00.863Z,19.72
2022-10-28T07:21:00.840Z,19.80
2022-10-28T07:22:00.797Z,19.80
2022-10-28T07:23:00.758Z,20.05
2022-10-28T07:24:00.719Z,20.22
2022-10-28T07:25:00.709Z,20.53
2022-10-28T07:26:00.648Z,20.64
2022-10-28T07:27:00.609Z,20.64
2022-10-28T07:28:00.575Z,20.79
2022-10-28T07:29:00.537Z,20.71
2022-10-28T07:30:00.501Z,20.79
2022-10-28T07:31:00.517Z,20.83
2022-10-28T07:32:00.427Z,21.09
2022-10-28T07:33:00.391Z,21.24
2022-10-28T07:34:00.360Z,21.26
2022-10-28T07:35:00.319Z,21.27
2022-10-28T07:36:00.290Z,21.30
2022-10-28T07:37:00.297Z,21.28
2022-10-28T07:38:00.215Z,21.24
2022-10-28T07:39:00.268Z,21.24
2022-10-28T07:40:00.174Z,21.15
2022-10-28T07:41:00.108Z,20.90
2022-10-28T07:42:00.071Z,20.96
2022-10-28T07:43:00.045Z,20.94
2022-10-28T07:44:00.004Z,21.18
2022-10-28T07:44:59.967Z,21.24
2022-10-28T07:45:59.927Z,21.30
2022-10-28T07:46:59.894Z,21.28
2022-10-28T07:47:59.857Z,21.33
2022-10-28T07:48:59.915Z,21.24
2022-10-28T07:49:59.785Z,21.12
2022-10-28T07:50:59.749Z,21.09
2022-10-28T07:51:59.712Z,20.98
2022-10-28T07:52:59.725Z,20.98
2022-10-28T07:53:59.642Z,21.00
2022-10-28T07:54:59.618Z,21.16
2022-10-28T07:55:59.569Z,21.33
2022-10-28T07:56:59.535Z,21.61
2022-10-28T07:57:59.496Z,21.91
2022-10-28T07:58:59.461Z,22.08
2022-10-28T07:59:59.433Z,22.11
2022-10-28T08:00:59.439Z,22.35
2022-10-28T08:01:59.442Z,22.59
2022-10-28T08:02:59.315Z,22.93
2022-10-28T08:03:59.277Z,23.04
2022-10-28T08:04:59.243Z,23.15
2022-10-28T08:05:59.665Z,23.14
2022-10-28T08:06:59.179Z,23.39
2022-10-28T08:07:59.131Z,23.53
2022-10-28T08:08:59.104Z,23.44
2022-10-28T08:09:59.058Z,23.47
2022-10-28T08:10:59.023Z,23.50
2022-10-28T08:11:58.989Z,23.50
2022-10-28T08:12:58.951Z,23.19
2022-10-28T08:13:58.914Z,22.97
2022-10-28T08:14:58.894Z,22.94
2022-10-28T08:15:58.841Z,23.16
2022-10-28T08:16:58.804Z,23.29
2022-10-28T08:17:58.770Z,23.12
2022-10-28T08:18:58.744Z,22.64
2022-10-28T08:19:58.694Z,22.42
2022-10-28T08:21:58.630Z,22.27
2022-10-28T08:22:58.595Z,22.09
2022-10-28T08:23:58.565Z,22.04
2022-10-28T08:24:58.528Z,21.77
2022-10-28T08:25:58.502Z,21.49
2022-10-28T08:26:58.470Z,21.37
2022-10-28T08:27:58.420Z,21.26
2022-10-28T08:28:58.388Z,21.30
2022-10-28T08:29:58.351Z,21.22
2022-10-28T08:31:08.290Z,21.26
2022-10-28T08:31:58.292Z,21.13
2022-10-28T08:32:58.292Z,21.15
2022-10-28T08:33:58.212Z,21.06
2022-10-28T08:34:58.182Z,20.94
2022-10-28T08:35:58.143Z,21.00
2022-10-28T08:36:58.160Z,21.05
2022-10-28T08:37:58.072Z,21.11
2022-10-28T08:38:58.055Z,21.24
2022-10-28T08:39:58.001Z,21.40
2022-10-28T08:40:57.968Z,21.51
2022-10-28T08:41:57.934Z,21.82
2022-10-28T08:42:57.903Z,22.24
2022-10-28T08:43:58.074Z,22.38
2022-10-28T08:44:57.848Z,22.78
2022-10-28T08:45:57.800Z,22.99
2022-10-28T08:46:57.761Z,22.86
2022-10-28T08:47:58.071Z,23.00
2022-10-28T08:48:57.697Z,23.26
2022-10-28T08:49:57.654Z,23.12
2022-10-28T08:50:57.641Z,23.06
2022-10-28T08:51:57.586Z,23.09
2022-10-28T08:52:57.740Z,23.18
2022-10-28T08:53:57.527Z,23.44
2022-10-28T08:54:57.485Z,23.77
2022-10-28T08:55:57.452Z,23.97
2022-10-28T08:56:57.434Z,24.00
2022-10-28T08:57:57.383Z,24.12
2022-10-28T08:58:57.356Z,23.97
2022-10-28T08:59:57.316Z,24.24
2022-10-28T09:00:57.321Z,23.81
2022-10-28T09:02:04.324Z,23.82
2022-10-28T09:02:57.407Z,24.09
2022-10-28T09:03:57.181Z,24.37
2022-10-28T09:04:57.147Z,24.63
2022-10-28T09:05:57.112Z,24.90
2022-10-28T09:06:57.096Z,25.05
2022-10-28T09:07:57.047Z,24.42
2022-10-28T09:08:57.015Z,24.33
2022-10-28T09:09:56.983Z,24.52
2022-10-28T09:10:56.949Z,24.37
2022-10-28T09:11:56.916Z,24.29
2022-10-28T09:12:57.079Z,24.30
2022-10-28T09:13:56.848Z,23.84
2022-10-28T09:14:56.818Z,23.69
2022-10-28T09:15:56.789Z,24.05
2022-10-28T09:16:56.766Z,24.41
2022-10-28T09:17:57.061Z,24.79
2022-10-28T09:18:56.685Z,25.11
2022-10-28T09:19:56.658Z,24.97
2022-10-28T09:20:56.621Z,24.98
2022-10-28T09:21:56.588Z,24.52
2022-10-28T09:22:56.969Z,23.99
2022-10-28T09:23:56.519Z,23.54
2022-10-28T09:24:56.500Z,23.14
2022-10-28T09:25:56.469Z,23.16
2022-10-28T09:26:56.423Z,23.53
2022-10-28T09:27:56.720Z,24.04
2022-10-28T09:28:56.425Z,24.29
2022-10-28T09:29:56.337Z,24.24
2022-10-28T09:30:56.292Z,23.89
2022-10-28T09:31:56.261Z,23.78
2022-10-28T09:32:56.413Z,23.99
2022-10-28T09:33:56.206Z,24.29
2022-10-28T09:34:56.164Z,24.33
2022-10-28T09:35:56.128Z,24.26
2022-10-28T09:36:56.095Z,24.55
2022-10-28T09:37:56.063Z,24.48
2022-10-28T09:38:56.041Z,24.71
2022-10-28T09:39:55.996Z,24.56
2022-10-28T09:40:55.967Z,24.39
2022-10-28T09:41:55.930Z,24.61
2022-10-28T09:42:55.897Z,24.53
2022-10-28T09:43:55.880Z,24.71
2022-10-28T09:44:55.831Z,24.67
2022-10-28T09:45:55.800Z,24.59
2022-10-28T09:46:55.768Z,24.39
2022-10-28T09:47:56.043Z,24.51
2022-10-28T09:48:55.704Z,24.77
2022-10-28T09:49:55.679Z,24.80
2022-10-28T09:50:55.634Z,24.63
2022-10-28T09:51:55.600Z,24.53
2022-10-28T09:52:55.571Z,25.01
2022-10-28T09:53:55.554Z,25.19
2022-10-28T09:54:55.502Z,25.42
2022-10-28T09:55:55.509Z,25.63
2022-10-28T09:56:55.451Z,25.79
2022-10-28T09:57:55.901Z,26.01
2022-10-28T09:58:55.372Z,26.09
2022-10-28T09:59:55.365Z,26.27
2022-10-28T10:00:55.307Z,26.42
2022-10-28T10:01:55.448Z,26.51
2022-10-28T10:02:55.281Z,26.42
2022-10-28T10:03:55.207Z,26.19
2022-10-28T10:04:55.180Z,26.00
2022-10-28T10:05:55.141Z,25.94
2022-10-28T10:06:55.122Z,25.60
2022-10-28T10:07:55.530Z,25.44
2022-10-28T10:08:55.045Z,25.42
2022-10-28T10:09:55.040Z,25.09
2022-10-28T10:10:54.979Z,25.08
2022-10-28T10:11:54.945Z,24.75
2022-10-28T10:12:55.366Z,24.63
2022-10-28T10:13:54.880Z,24.61
2022-10-28T10:14:54.846Z,24.48
2022-10-28T10:15:54.814Z,24.48
2022-10-28T10:16:54.782Z,24.48
2022-10-28T10:17:54.748Z,24.45
2022-10-28T10:18:54.725Z,24.41
2022-10-28T10:19:54.683Z,24.39
2022-10-28T10:20:54.661Z,24.41
2022-10-28T10:21:54.614Z,24.59
2022-10-28T10:22:54.896Z,24.71
2022-10-28T10:23:54.551Z,24.44
2022-10-28T10:24:54.519Z,24.59
2022-10-28T10:25:54.493Z,24.74
2022-10-28T10:26:54.450Z,24.89
2022-10-28T10:27:54.813Z,24.84
2022-10-28T10:28:54.385Z,24.74
2022-10-28T10:29:54.364Z,24.51
2022-10-28T10:30:54.328Z,24.61
2022-10-28T10:31:54.282Z,24.49
2022-10-28T10:32:54.250Z,24.37
2022-10-28T10:33:54.214Z,24.49
2022-10-28T10:34:54.212Z,24.63
2022-10-28T10:35:59.052Z,24.59
2022-10-28T10:36:54.194Z,24.80
2022-10-28T10:37:54.321Z,24.90
2022-10-28T10:38:54.051Z,24.94
2022-10-28T10:39:55.771Z,25.14
2022-10-28T10:40:53.984Z,25.05
2022-10-28T10:41:53.949Z,25.04
2022-10-28T10:43:10.065Z,24.93
2022-10-28T10:43:53.935Z,24.90
2022-10-28T10:44:53.853Z,25.23
2022-10-28T10:45:53.817Z,25.26
2022-10-28T10:46:53.782Z,25.34
2022-10-28T10:47:54.036Z,25.63
2022-10-28T10:48:53.727Z,25.82
2022-10-28T10:49:53.682Z,25.81
2022-10-28T10:50:53.649Z,25.86
2022-10-28T10:51:53.617Z,25.81
2022-10-28T10:52:53.870Z,25.60
2022-10-28T10:53:53.561Z,25.36
2022-10-28T10:54:53.516Z,25.09
2022-10-28T10:55:53.484Z,25.07
2022-10-28T10:56:53.485Z,24.98
2022-10-28T10:57:53.585Z,24.92
2022-10-28T10:58:53.394Z,25.01
2022-10-28T10:59:53.352Z,24.90
2022-10-28T11:00:53.317Z,25.04
2022-10-28T11:01:53.398Z,24.94
2022-10-28T11:02:55.804Z,25.02
2022-10-28T11:03:53.233Z,25.02
2022-10-28T11:04:53.202Z,25.16
2022-10-28T11:06:05.376Z,25.12
2022-10-28T11:06:53.116Z,25.20
2022-10-28T11:07:53.466Z,25.07
2022-10-28T11:08:53.054Z,25.08
2022-10-28T11:09:53.019Z,25.23
2022-10-28T11:10:52.997Z,25.26
2022-10-28T11:11:52.963Z,25.41
2022-10-28T11:12:53.318Z,25.51
2022-10-28T11:13:52.884Z,25.42
2022-10-28T11:14:52.853Z,25.31
2022-10-28T11:15:52.820Z,25.19
2022-10-28T11:16:52.787Z,25.24
2022-10-28T11:17:53.134Z,25.34
2022-10-28T11:18:52.721Z,25.57
2022-10-28T11:19:52.687Z,25.66
2022-10-28T11:20:52.655Z,25.76
2022-10-28T11:21:52.623Z,25.96
2022-10-28T11:22:52.904Z,25.79
2022-10-28T11:23:52.587Z,25.60
2022-10-28T11:24:52.524Z,25.66
2022-10-28T11:25:52.499Z,25.67
2022-10-28T11:26:52.457Z,25.81
2022-10-28T11:27:55.521Z,25.81
2022-10-28T11:28:52.393Z,25.83
2022-10-28T11:29:52.373Z,25.79
2022-10-28T11:30:52.369Z,25.67
2022-10-28T11:31:52.295Z,25.69
2022-10-28T11:33:08.068Z,25.85
2022-10-28T11:33:52.230Z,25.78
2022-10-28T11:34:52.201Z,25.81
2022-10-28T11:35:52.178Z,25.81
2022-10-28T11:36:52.133Z,25.91
2022-10-28T11:37:52.099Z,26.06
2022-10-28T11:38:52.076Z,25.82
2022-10-28T11:39:52.036Z,25.91
2022-10-28T11:40:52.015Z,25.71
2022-10-28T11:41:51.970Z,25.74
2022-10-28T11:42:52.248Z,25.60
2022-10-28T11:43:54.835Z,25.51
2022-10-28T11:44:51.872Z,25.44
2022-10-28T11:45:51.841Z,25.44
2022-10-28T11:46:51.818Z,25.36
2022-10-28T11:47:52.128Z,25.41
2022-10-28T11:48:51.740Z,25.51
2022-10-28T11:49:51.708Z,25.64
2022-10-28T11:50:51.676Z,25.75
2022-10-28T11:51:51.654Z,25.44
2022-10-28T11:52:51.610Z,25.54
2022-10-28T11:53:51.579Z,25.66
2022-10-28T11:54:51.544Z,25.69
2022-10-28T11:55:51.511Z,25.74
2022-10-28T11:56:51.492Z,25.81
2022-10-28T11:57:51.746Z,25.93
2022-10-28T11:58:52.356Z,25.96
2022-10-28T11:59:51.381Z,26.20
2022-10-28T12:00:51.348Z,26.23
2022-10-28T12:01:51.455Z,26.19
2022-10-28T12:02:53.335Z,26.20
2022-10-28T12:03:51.250Z,26.20
2022-10-28T12:04:51.218Z,26.17
2022-10-28T12:05:51.187Z,26.12
2022-10-28T12:06:51.151Z,25.97
2022-10-28T12:07:51.128Z,25.97
2022-10-28T12:08:51.085Z,25.90
2022-10-28T12:09:51.066Z,25.94
2022-10-28T12:10:51.018Z,25.93
2022-10-28T12:11:51.057Z,25.86
2022-10-28T12:12:51.638Z,25.78
2022-10-28T12:13:50.961Z,25.74
2022-10-28T12:14:50.894Z,25.76
2022-10-28T12:15:50.863Z,25.61
2022-10-28T12:16:50.832Z,25.59
2022-10-28T12:17:50.899Z,25.63
2022-10-28T12:18:50.782Z,25.63
2022-10-28T12:19:50.728Z,25.75
2022-10-28T12:20:50.694Z,25.81
2022-10-28T12:21:50.663Z,25.76
2022-10-28T12:22:50.634Z,25.85
2022-10-28T12:23:50.598Z,25.71
2022-10-28T12:24:50.635Z,25.82
2022-10-28T12:25:50.533Z,25.82
2022-10-28T12:26:50.499Z,25.69
2022-10-28T12:27:50.467Z,25.75
2022-10-28T12:28:50.440Z,25.78
2022-10-28T12:29:50.405Z,25.64
2022-10-28T12:30:50.381Z,25.61
2022-10-28T12:31:50.340Z,25.63
2022-10-28T12:32:50.302Z,25.57
2022-10-28T12:33:50.271Z,25.44
2022-10-28T12:34:50.290Z,25.36
2022-10-28T12:35:50.212Z,25.41
2022-10-28T12:36:50.192Z,25.45
2022-10-28T12:37:50.147Z,25.51
2022-10-28T12:38:50.108Z,25.54
2022-10-28T12:39:50.088Z,25.41
2022-10-28T12:40:50.041Z,25.53
2022-10-28T12:41:50.024Z,25.41
2022-10-28T12:42:49.972Z,25.44
2022-10-28T12:43:49.952Z,25.16
2022-10-28T12:44:52.902Z,25.23
2022-10-28T12:45:49.875Z,25.26
2022-10-28T12:47:49.811Z,25.22
2022-10-28T12:48:49.774Z,25.26
2022-10-28T12:49:49.752Z,25.16
2022-10-28T12:50:49.715Z,25.19
2022-10-28T12:51:49.673Z,25.12
2022-10-28T12:52:49.648Z,25.24
2022-10-28T12:53:49.608Z,25.14
2022-10-28T12:54:53.514Z,25.05
2022-10-28T12:55:49.632Z,25.07
2022-10-28T12:56:49.508Z,25.05
2022-10-28T12:57:49.474Z,25.05